Notre Dame — FHST — position and weather

sailwx.info

Track history (hours):
 
Tides and Currents Weather Stations Pressure Air Temp Water Temp Dewpoint Dewpoint Depression Visibility Wind Speed Wind Dir Waves Ship Positions

Notre Dame

Last reported at 2017-Dec-19 19:24 UTC. Time now 2018-Feb-21 05:37 UTC.
Position N 48°44' W 003°59'.
Warning: this ship's position is months out of date.

Length 24 m; draft 3.4 m.

Type: Fishing. MMSI: 227820000.

Date/timePositionNaut miles runAvg speedWind from/ knotsBaromVisibWave heightAir tempDewpointWater temp
2017-Dec-19 19:24N 48°44' W 003°59'5 1.2
2017-Dec-19 15:33N 48°47' W 003°54'6 1.8
2017-Dec-19 12:11N 48°47' W 004°04'1 1.8
2017-Dec-19 11:52N 48°47' W 004°04'1 1.4
2017-Dec-19 11:20N 48°47' W 004°05'1 1.5
2017-Dec-19 10:51N 48°47' W 004°06'1 1.8
2017-Dec-19 10:09N 48°47' W 004°08'0 1.8
2017-Dec-19 09:57N 48°47' W 004°09'0 0.8
2017-Dec-19 09:28N 48°47' W 004°08'1 2.5
2017-Dec-19 08:58N 48°46' W 004°08'1 1.5
2017-Dec-19 08:29N 48°45' W 004°08'1 1.3
2017-Dec-19 07:43N 48°44' W 004°07'0 1.5
2017-Dec-19 07:29N 48°44' W 004°08'1 2.4
2017-Dec-19 07:00N 48°45' W 004°08'0 1.0
2017-Dec-19 06:28N 48°46' W 004°09'1 1.8
2017-Dec-19 05:58N 48°45' W 004°09'1 2.3
2017-Dec-19 05:30N 48°46' W 004°10'1 2.2
2017-Dec-19 05:01N 48°45' W 004°10'1 2.6
2017-Dec-19 04:30N 48°46' W 004°11'1 1.4
2017-Dec-19 04:00N 48°46' W 004°12'1 2.5
2017-Dec-19 03:30N 48°45' W 004°11'2 4.2
2017-Dec-19 03:00N 48°46' W 004°14'1 2.0
2017-Dec-19 02:30N 48°47' W 004°14'1 2.3
2017-Dec-19 02:00N 48°48' W 004°13'1 1.3
2017-Dec-19 01:30N 48°48' W 004°12'2 3.8
2017-Dec-19 01:00N 48°49' W 004°15'2 3.8
2017-Dec-19 00:30N 48°49' W 004°17'2 3.4
2017-Dec-19 00:01N 48°48' W 004°20'2 3.0
2017-Dec-18 23:30N 48°48' W 004°22'1 2.5
2017-Dec-18 22:59N 48°47' W 004°24'1 2.4
2017-Dec-18 22:23N 48°47' W 004°22'1 3.3
2017-Dec-18 21:56N 48°47' W 004°20'2 3.1
2017-Dec-18 21:20N 48°47' W 004°17'2 2.6
2017-Dec-18 20:31N 48°47' W 004°14'1 2.1
2017-Dec-18 19:49N 48°47' W 004°11'0 0.3
2017-Dec-18 19:22N 48°47' W 004°11'1 1.3
2017-Dec-18 18:57N 48°47' W 004°12'0 0.4
2017-Dec-18 18:14N 48°47' W 004°12'2 1.6
2017-Dec-18 16:52N 48°46' W 004°09'1 0.7
2017-Dec-18 14:55N 48°45' W 004°07'1 1.3
2017-Dec-18 14:25N 48°46' W 004°08'1 2.4
2017-Dec-18 13:56N 48°47' W 004°09'1 2.3
2017-Dec-18 13:27N 48°46' W 004°08'2 4.0
2017-Dec-18 13:00N 48°47' W 004°10'1 2.5
2017-Dec-18 12:29N 48°46' W 004°09'2 3.6
2017-Dec-18 11:56N 48°44' W 004°11'2 4.5
2017-Dec-18 11:24N 48°45' W 004°14'1 2.4
2017-Dec-18 11:00N 48°46' W 004°14'4 4.8
2017-Dec-18 10:09N 48°46' W 004°08'0 0.2
2017-Dec-18 09:59N 48°46' W 004°08'1 1.0
2017-Dec-18 09:28N 48°45' W 004°08'1 1.8
2017-Dec-18 08:59N 48°45' W 004°08'2 2.8
2017-Dec-18 08:16N 48°46' W 004°09'1 2.3
2017-Dec-18 07:59N 48°46' W 004°09'1 2.3
2017-Dec-18 07:30N 48°45' W 004°08'2 3.2
2017-Dec-18 07:00N 48°46' W 004°10'1 2.5
2017-Dec-18 06:31N 48°44' W 004°10'2 2.9
2017-Dec-18 05:58N 48°46' W 004°11'1 2.6
2017-Dec-18 05:30N 48°45' W 004°10'2 4.3
2017-Dec-18 05:00N 48°46' W 004°13'1 2.4
2017-Dec-18 04:30N 48°45' W 004°12'1 2.4
2017-Dec-18 04:00N 48°45' W 004°14'1 2.5
2017-Dec-18 03:30N 48°46' W 004°15'1 2.6
2017-Dec-18 03:01N 48°45' W 004°14'1 2.4
2017-Dec-18 02:30N 48°45' W 004°16'1 2.2
2017-Dec-18 01:59N 48°45' W 004°18'0 0.8
2017-Dec-18 01:30N 48°45' W 004°17'1 1.1
2017-Dec-18 00:58N 48°45' W 004°16'1 1.9
2017-Dec-18 00:23N 48°45' W 004°15'1 2.2
2017-Dec-18 00:00N 48°45' W 004°16'1 2.7
2017-Dec-17 23:30N 48°45' W 004°18'1 2.2
2017-Dec-17 23:00N 48°45' W 004°20'1 1.2
2017-Dec-17 22:30N 48°45' W 004°20'2 3.5
2017-Dec-17 22:00N 48°45' W 004°18'1 2.1
2017-Dec-17 21:30N 48°45' W 004°16'1 1.3
2017-Dec-17 21:00N 48°44' W 004°17'1 1.6
2017-Dec-17 20:29N 48°44' W 004°18'1 1.8
2017-Dec-17 19:58N 48°44' W 004°19'0 0.5
2017-Dec-17 19:30N 48°44' W 004°20'2 3.8
2017-Dec-17 19:00N 48°44' W 004°17'2 3.5
2017-Dec-17 18:18N 48°44' W 004°13'1 3.0
2017-Dec-17 17:59N 48°44' W 004°12'1 2.7
2017-Dec-17 17:31N 48°44' W 004°10'2 2.2
2017-Dec-17 16:37N 48°44' W 004°07'1 7.3
2017-Dec-17 16:28N 48°46' W 004°07'1 1.1
2017-Dec-17 16:00N 48°45' W 004°08'3 6.1
2017-Dec-17 15:30N 48°44' W 004°12'2 3.9
2017-Dec-17 14:58N 48°45' W 004°15'3 6.3
2017-Dec-17 14:30N 48°45' W 004°20'1 2.3
2017-Dec-17 14:00N 48°44' W 004°19'2 3.4
2017-Dec-17 13:30N 48°44' W 004°17'1 2.6
2017-Dec-17 13:00N 48°45' W 004°18'1 2.8
2017-Dec-17 12:31N 48°45' W 004°15'0 0.5
2017-Dec-17 11:59N 48°45' W 004°16'1 1.8
2017-Dec-17 11:31N 48°46' W 004°16'2 3.5
2017-Dec-17 11:00N 48°45' W 004°14'1 1.7
2017-Dec-17 10:30N 48°45' W 004°15'1 2.6
2017-Dec-17 10:00N 48°47' W 004°14'2 3.5
2017-Dec-17 09:30N 48°45' W 004°14'1 2.1
2017-Dec-17 09:00N 48°46' W 004°14'1 2.0
2017-Dec-17 08:29N 48°45' W 004°14'1 2.4
2017-Dec-17 08:01N 48°46' W 004°13'1 1.2
2017-Dec-17 07:30N 48°45' W 004°13'1 2.0
2017-Dec-17 07:01N 48°44' W 004°12'2 3.3
2017-Dec-17 06:30N 48°46' W 004°12'1 2.7
2017-Dec-17 06:01N 48°45' W 004°11'2 3.3
2017-Dec-17 05:30N 48°46' W 004°11'1 2.3
2017-Dec-17 04:59N 48°45' W 004°10'1 2.2
2017-Dec-17 04:29N 48°46' W 004°09'0 0.5
2017-Dec-17 03:57N 48°45' W 004°09'1 1.9
2017-Dec-17 03:28N 48°45' W 004°09'2 3.7
2017-Dec-17 02:59N 48°46' W 004°07'1 1.4
2017-Dec-17 02:30N 48°47' W 004°07'1 3.0
2017-Dec-17 02:00N 48°48' W 004°09'1 1.9
2017-Dec-17 01:23N 48°47' W 004°08'1 1.9
2017-Dec-17 01:00N 48°46' W 004°08'2 1.6
2017-Dec-17 00:03N 48°45' W 004°07'0 3.8
2017-Dec-16 23:57N 48°45' W 004°07'2 4.0
2017-Dec-16 23:26N 48°47' W 004°09'0 0.7
2017-Dec-16 22:59N 48°47' W 004°09'1 1.9
2017-Dec-16 22:30N 48°46' W 004°08'0 0.9
2017-Dec-16 22:00N 48°46' W 004°09'1 2.9
2017-Dec-16 21:30N 48°47' W 004°10'1 2.6
2017-Dec-16 21:00N 48°47' W 004°12'1 2.2
2017-Dec-16 20:30N 48°48' W 004°14'1 2.2
2017-Dec-16 20:01N 48°47' W 004°15'1 2.4
2017-Dec-16 19:30N 48°47' W 004°17'2 3.1
2017-Dec-16 18:59N 48°47' W 004°20'1 1.6
2017-Dec-16 18:30N 48°47' W 004°21'1 2.2
2017-Dec-16 17:59N 48°46' W 004°20'3 5.7
2017-Dec-16 17:29N 48°43' W 004°20'1 2.4
2017-Dec-16 17:00N 48°44' W 004°21'1 1.8
2017-Dec-16 16:30N 48°45' W 004°19'1 2.0
2017-Dec-16 15:58N 48°46' W 004°18'1 2.6
2017-Dec-16 15:30N 48°44' W 004°18'2 3.0
2017-Dec-16 14:59N 48°45' W 004°16'1 1.8
2017-Dec-16 14:31N 48°46' W 004°16'1 2.2
2017-Dec-16 14:00N 48°44' W 004°16'1 2.7
2017-Dec-16 13:30N 48°46' W 004°16'1 2.3
2017-Dec-16 13:01N 48°45' W 004°15'1 2.6
2017-Dec-16 12:30N 48°46' W 004°16'2 3.6
2017-Dec-16 12:00N 48°45' W 004°14'1 2.2
2017-Dec-16 11:30N 48°46' W 004°14'1 2.1
2017-Dec-16 11:00N 48°45' W 004°13'1 1.6
2017-Dec-16 10:30N 48°45' W 004°13'1 2.2
2017-Dec-16 10:00N 48°46' W 004°14'0 0.7
2017-Dec-16 09:26N 48°46' W 004°13'0 0.3
2017-Dec-16 08:59N 48°46' W 004°13'0 0.2
2017-Dec-16 08:29N 48°46' W 004°13'0 0.4
2017-Dec-16 08:01N 48°46' W 004°14'1 1.0
2017-Dec-16 07:30N 48°46' W 004°13'1 1.6
2017-Dec-16 07:00N 48°46' W 004°12'1 1.6
2017-Dec-16 06:29N 48°45' W 004°12'1 1.4
2017-Dec-16 06:00N 48°45' W 004°11'0 0.9
2017-Dec-16 05:30N 48°45' W 004°10'1 2.7
2017-Dec-16 05:00N 48°46' W 004°11'2 4.5
2017-Dec-16 04:28N 48°44' W 004°09'1 2.2
2017-Dec-16 04:00N 48°45' W 004°09'1 1.6
2017-Dec-16 03:29N 48°46' W 004°10'2 3.4
2017-Dec-16 03:00N 48°48' W 004°09'1 1.1
2017-Dec-16 02:06N 48°48' W 004°08'0 3.1
2017-Dec-16 01:58N 48°49' W 004°08'1 3.0
2017-Dec-16 01:28N 48°47' W 004°07'1 1.8
2017-Dec-16 00:50N 48°46' W 004°07'1 1.9
2017-Dec-16 00:27N 48°45' W 004°07'0 0.8
2017-Dec-16 00:00N 48°45' W 004°07'1 0.7
2017-Dec-15 23:13N 48°45' W 004°07'1 2.5
2017-Dec-15 22:47N 48°45' W 004°08'1 4.5
2017-Dec-15 22:29N 48°46' W 004°10'1 2.3
2017-Dec-15 22:00N 48°45' W 004°09'2 3.2
2017-Dec-15 21:27N 48°44' W 004°07'2 4.7
2017-Dec-15 20:57N 48°46' W 004°08'1 2.1
2017-Dec-15 20:30N 48°46' W 004°10'1 2.3
2017-Dec-15 20:00N 48°45' W 004°11'1 2.2
2017-Dec-15 19:30N 48°44' W 004°12'1 2.3
2017-Dec-15 19:01N 48°43' W 004°13'1 1.4
2017-Dec-15 18:29N 48°43' W 004°14'1 1.8
2017-Dec-15 18:00N 48°44' W 004°15'2 4.1
2017-Dec-15 17:30N 48°46' W 004°16'4 8.3
2017-Dec-15 17:01N 48°47' W 004°22'1 2.0
2017-Dec-15 16:31N 48°46' W 004°21'2 4.2
2017-Dec-15 15:57N 48°43' W 004°20'2 4.8
2017-Dec-15 15:30N 48°45' W 004°18'1 1.6
2017-Dec-15 15:00N 48°44' W 004°18'1 2.1
2017-Dec-15 14:30N 48°43' W 004°18'2 3.2
2017-Dec-15 14:00N 48°45' W 004°16'1 1.3
2017-Dec-15 13:30N 48°45' W 004°17'0 0.1
2017-Dec-15 13:01N 48°45' W 004°17'1 2.3
2017-Dec-15 12:31N 48°44' W 004°17'2 3.4
2017-Dec-15 11:59N 48°45' W 004°14'1 1.8
2017-Dec-15 11:30N 48°45' W 004°15'1 2.2
2017-Dec-15 10:59N 48°44' W 004°14'2 3.6
2017-Dec-15 10:24N 48°45' W 004°11'2 4.2
2017-Dec-15 10:00N 48°46' W 004°12'1 2.2
2017-Dec-15 09:30N 48°45' W 004°12'1 1.9
2017-Dec-15 09:00N 48°44' W 004°11'1 1.3
2017-Dec-15 08:30N 48°45' W 004°09'0 0.0
2017-Dec-13 12:55N 48°45' W 004°09'1 3.0
2017-Dec-13 12:28N 48°45' W 004°11'2 4.6
2017-Dec-13 11:59N 48°46' W 004°14'1 2.3
2017-Dec-13 11:30N 48°46' W 004°15'2 3.3
2017-Dec-13 11:00N 48°47' W 004°18'1 2.4
2017-Dec-13 10:26N 48°45' W 004°17'2 4.2
2017-Dec-13 10:01N 48°46' W 004°20'1 2.7
2017-Dec-13 09:30N 48°45' W 004°19'2 3.1
2017-Dec-13 08:49N 48°47' W 004°21'2 4.5
2017-Dec-13 08:26N 48°45' W 004°21'2 3.4
2017-Dec-13 07:58N 48°44' W 004°20'1 2.6
2017-Dec-13 07:30N 48°45' W 004°21'2 2.1
2017-Dec-13 06:32N 48°47' W 004°22'3 8.4
2017-Dec-13 06:11N 48°45' W 004°18'1 8.3
2017-Dec-13 06:00N 48°43' W 004°18'1 1.5
2017-Dec-13 05:30N 48°44' W 004°18'1 1.9
2017-Dec-13 05:00N 48°45' W 004°18'2 2.6
2017-Dec-13 04:22N 48°44' W 004°17'1 2.8
2017-Dec-13 03:58N 48°45' W 004°17'2 1.4
2017-Dec-13 02:48N 48°45' W 004°15'2 0.2
2017-Dec-12 17:43N 48°44' W 004°12'1 0.3
2017-Dec-12 14:53N 48°44' W 004°13'1 2.7
2017-Dec-12 14:22N 48°44' W 004°15'1 3.1
2017-Dec-12 14:00N 48°44' W 004°17'2 3.3
2017-Dec-12 13:16N 48°45' W 004°20'1 4.8
2017-Dec-12 13:00N 48°46' W 004°22'1 1.3
2017-Dec-12 12:08N 48°45' W 004°21'0 2.2
2017-Dec-12 12:00N 48°45' W 004°21'1 2.4
2017-Dec-12 11:30N 48°43' W 004°21'1 2.4
2017-Dec-12 11:00N 48°44' W 004°21'2 2.9
2017-Dec-12 10:25N 48°43' W 004°20'2 3.3
2017-Dec-12 09:57N 48°44' W 004°18'2 2.5
2017-Dec-12 09:11N 48°46' W 004°20'0 2.2
2017-Dec-12 08:59N 48°45' W 004°19'1 2.0
2017-Dec-12 08:30N 48°44' W 004°19'1 2.2
2017-Dec-12 07:59N 48°43' W 004°19'3 3.6
2017-Dec-12 07:04N 48°47' W 004°18'0 3.1
2017-Dec-12 06:58N 48°46' W 004°18'1 2.5
2017-Dec-12 06:29N 48°45' W 004°18'1 2.4
2017-Dec-12 06:00N 48°44' W 004°17'3 2.9
2017-Dec-12 05:01N 48°47' W 004°16'0 1.7
2017-Dec-12 04:48N 48°47' W 004°16'1 2.6
2017-Dec-12 04:30N 48°46' W 004°16'1 1.9
2017-Dec-12 04:00N 48°45' W 004°15'2 2.3
2017-Dec-12 03:19N 48°44' W 004°14'2 4.9
2017-Dec-12 02:54N 48°46' W 004°14'2 2.3
2017-Dec-12 02:10N 48°44' W 004°13'0 1.5
2017-Dec-12 01:58N 48°44' W 004°13'2 3.4
2017-Dec-12 01:24N 48°46' W 004°13'1 1.8
2017-Dec-12 01:00N 48°47' W 004°13'0 0.2
2017-Dec-11 23:51N 48°47' W 004°13'2 0.8
2017-Dec-11 21:38N 48°46' W 004°10'1 0.3
2017-Dec-11 19:39N 48°46' W 004°11'2 2.9
2017-Dec-11 18:58N 48°48' W 004°11'2 1.6
2017-Dec-11 17:53N 48°48' W 004°14'4 3.1
2017-Dec-11 16:38N 48°45' W 004°18'2 3.0
2017-Dec-11 15:58N 48°44' W 004°20'2 2.9
2017-Dec-11 15:20N 48°42' W 004°22'0 0.5
2017-Dec-11 14:58N 48°42' W 004°22'1 3.1
2017-Dec-11 14:29N 48°44' W 004°22'0 1.0
2017-Dec-11 13:58N 48°44' W 004°21'3 5.8
2017-Dec-11 13:30N 48°46' W 004°23'1 2.5
2017-Dec-11 12:56N 48°45' W 004°22'1 1.8
2017-Dec-11 12:30N 48°44' W 004°22'1 2.3
2017-Dec-11 11:58N 48°43' W 004°21'4 4.8
2017-Dec-11 11:06N 48°47' W 004°19'0 1.1
2017-Dec-11 10:58N 48°47' W 004°19'3 2.9
2017-Dec-11 10:07N 48°45' W 004°18'1 7.8
2017-Dec-11 10:00N 48°44' W 004°17'1 1.8
2017-Dec-11 09:30N 48°45' W 004°18'0 0.1
2017-Dec-11 08:59N 48°45' W 004°18'2 3.2
2017-Dec-11 08:30N 48°43' W 004°19'4 7.9
2017-Dec-11 08:00N 48°47' W 004°20'1 2.0
2017-Dec-11 07:29N 48°46' W 004°20'1 1.9
2017-Dec-11 07:00N 48°45' W 004°20'1 2.3
2017-Dec-11 06:30N 48°44' W 004°19'1 2.4
2017-Dec-11 06:00N 48°44' W 004°18'2 4.1
2017-Dec-11 05:30N 48°45' W 004°15'3 5.4
2017-Dec-11 05:00N 48°47' W 004°17'1 2.5
2017-Dec-11 04:30N 48°46' W 004°16'1 1.5
2017-Dec-11 04:00N 48°45' W 004°16'1 2.4
2017-Dec-11 03:30N 48°44' W 004°16'2 3.6
2017-Dec-11 03:00N 48°46' W 004°14'1 1.4
2017-Dec-11 02:30N 48°45' W 004°14'6 0.4
2017-Dec-10 08:58N 48°46' W 004°04'510.5
2017-Dec-10 08:30N 48°45' W 004°12'510.7
2017-Dec-10 08:00N 48°43' W 004°19'4 7.0
2017-Dec-10 07:30N 48°47' W 004°21'1 1.1
2017-Dec-10 07:00N 48°46' W 004°21'1 1.3
2017-Dec-10 06:31N 48°46' W 004°21'1 1.8
2017-Dec-10 06:00N 48°45' W 004°20'1 2.1
2017-Dec-10 05:30N 48°44' W 004°20'2 3.4
2017-Dec-10 05:00N 48°45' W 004°22'2 3.6
2017-Dec-10 04:29N 48°47' W 004°23'1 2.6
2017-Dec-10 04:00N 48°45' W 004°22'1 1.8
2017-Dec-10 03:30N 48°44' W 004°22'1 2.4
2017-Dec-10 03:00N 48°43' W 004°22'1 2.2
2017-Dec-10 02:30N 48°43' W 004°23'1 1.2
2017-Dec-10 01:59N 48°43' W 004°22'0 0.8
2017-Dec-10 01:30N 48°42' W 004°23'1 2.7
2017-Dec-10 01:00N 48°42' W 004°25'1 2.0
2017-Dec-10 00:30N 48°43' W 004°24'1 1.1
2017-Dec-10 00:00N 48°43' W 004°24'1 1.1
2017-Dec-09 23:30N 48°42' W 004°24'2 2.9
2017-Dec-09 22:59N 48°43' W 004°22'1 2.0
2017-Dec-09 22:30N 48°43' W 004°23'0 0.8
2017-Dec-09 22:00N 48°42' W 004°23'1 2.2
2017-Dec-09 21:28N 48°43' W 004°21'2 4.1
2017-Dec-09 21:01N 48°42' W 004°24'0 0.8
2017-Dec-09 20:30N 48°42' W 004°24'1 1.8
2017-Dec-09 20:00N 48°43' W 004°22'0 0.6
2017-Dec-09 19:31N 48°43' W 004°22'  
Track history (hours):
 
Tides and Currents Weather Stations Pressure Air Temp Water Temp Dewpoint Dewpoint Depression Visibility Wind Speed Wind Dir Waves Ship Positions

Notre Dame

Last reported at 2017-Dec-19 19:24 UTC. Time now 2018-Feb-21 05:37 UTC.
Position N 48°44' W 003°59'.
Warning: this ship's position is months out of date.

Length 24 m; draft 3.4 m.

Type: Fishing. MMSI: 227820000.

Date/timePositionNaut miles runAvg speedWind from/ knotsBaromVisibWave heightAir tempDewpointWater temp
2017-Dec-19 19:24N 48°44' W 003°59'5 1.2
2017-Dec-19 15:33N 48°47' W 003°54'6 1.8
2017-Dec-19 12:11N 48°47' W 004°04'1 1.8
2017-Dec-19 11:52N 48°47' W 004°04'1 1.4
2017-Dec-19 11:20N 48°47' W 004°05'1 1.5
2017-Dec-19 10:51N 48°47' W 004°06'1 1.8
2017-Dec-19 10:09N 48°47' W 004°08'0 1.8
2017-Dec-19 09:57N 48°47' W 004°09'0 0.8
2017-Dec-19 09:28N 48°47' W 004°08'1 2.5
2017-Dec-19 08:58N 48°46' W 004°08'1 1.5
2017-Dec-19 08:29N 48°45' W 004°08'1 1.3
2017-Dec-19 07:43N 48°44' W 004°07'0 1.5
2017-Dec-19 07:29N 48°44' W 004°08'1 2.4
2017-Dec-19 07:00N 48°45' W 004°08'0 1.0
2017-Dec-19 06:28N 48°46' W 004°09'1 1.8
2017-Dec-19 05:58N 48°45' W 004°09'1 2.3
2017-Dec-19 05:30N 48°46' W 004°10'1 2.2
2017-Dec-19 05:01N 48°45' W 004°10'1 2.6
2017-Dec-19 04:30N 48°46' W 004°11'1 1.4
2017-Dec-19 04:00N 48°46' W 004°12'1 2.5
2017-Dec-19 03:30N 48°45' W 004°11'2 4.2
2017-Dec-19 03:00N 48°46' W 004°14'1 2.0
2017-Dec-19 02:30N 48°47' W 004°14'1 2.3
2017-Dec-19 02:00N 48°48' W 004°13'1 1.3
2017-Dec-19 01:30N 48°48' W 004°12'2 3.8
2017-Dec-19 01:00N 48°49' W 004°15'2 3.8
2017-Dec-19 00:30N 48°49' W 004°17'2 3.4
2017-Dec-19 00:01N 48°48' W 004°20'2 3.0
2017-Dec-18 23:30N 48°48' W 004°22'1 2.5
2017-Dec-18 22:59N 48°47' W 004°24'1 2.4
2017-Dec-18 22:23N 48°47' W 004°22'1 3.3
2017-Dec-18 21:56N 48°47' W 004°20'2 3.1
2017-Dec-18 21:20N 48°47' W 004°17'2 2.6
2017-Dec-18 20:31N 48°47' W 004°14'1 2.1
2017-Dec-18 19:49N 48°47' W 004°11'0 0.3
2017-Dec-18 19:22N 48°47' W 004°11'1 1.3
2017-Dec-18 18:57N 48°47' W 004°12'0 0.4
2017-Dec-18 18:14N 48°47' W 004°12'2 1.6
2017-Dec-18 16:52N 48°46' W 004°09'1 0.7
2017-Dec-18 14:55N 48°45' W 004°07'1 1.3
2017-Dec-18 14:25N 48°46' W 004°08'1 2.4
2017-Dec-18 13:56N 48°47' W 004°09'1 2.3
2017-Dec-18 13:27N 48°46' W 004°08'2 4.0
2017-Dec-18 13:00N 48°47' W 004°10'1 2.5
2017-Dec-18 12:29N 48°46' W 004°09'2 3.6
2017-Dec-18 11:56N 48°44' W 004°11'2 4.5
2017-Dec-18 11:24N 48°45' W 004°14'1 2.4
2017-Dec-18 11:00N 48°46' W 004°14'4 4.8
2017-Dec-18 10:09N 48°46' W 004°08'0 0.2
2017-Dec-18 09:59N 48°46' W 004°08'1 1.0
2017-Dec-18 09:28N 48°45' W 004°08'1 1.8
2017-Dec-18 08:59N 48°45' W 004°08'2 2.8
2017-Dec-18 08:16N 48°46' W 004°09'1 2.3
2017-Dec-18 07:59N 48°46' W 004°09'1 2.3
2017-Dec-18 07:30N 48°45' W 004°08'2 3.2
2017-Dec-18 07:00N 48°46' W 004°10'1 2.5
2017-Dec-18 06:31N 48°44' W 004°10'2 2.9
2017-Dec-18 05:58N 48°46' W 004°11'1 2.6
2017-Dec-18 05:30N 48°45' W 004°10'2 4.3
2017-Dec-18 05:00N 48°46' W 004°13'1 2.4
2017-Dec-18 04:30N 48°45' W 004°12'1 2.4
2017-Dec-18 04:00N 48°45' W 004°14'1 2.5
2017-Dec-18 03:30N 48°46' W 004°15'1 2.6
2017-Dec-18 03:01N 48°45' W 004°14'1 2.4
2017-Dec-18 02:30N 48°45' W 004°16'1 2.2
2017-Dec-18 01:59N 48°45' W 004°18'0 0.8
2017-Dec-18 01:30N 48°45' W 004°17'1 1.1
2017-Dec-18 00:58N 48°45' W 004°16'1 1.9
2017-Dec-18 00:23N 48°45' W 004°15'1 2.2
2017-Dec-18 00:00N 48°45' W 004°16'1 2.7
2017-Dec-17 23:30N 48°45' W 004°18'1 2.2
2017-Dec-17 23:00N 48°45' W 004°20'1 1.2
2017-Dec-17 22:30N 48°45' W 004°20'2 3.5
2017-Dec-17 22:00N 48°45' W 004°18'1 2.1
2017-Dec-17 21:30N 48°45' W 004°16'1 1.3
2017-Dec-17 21:00N 48°44' W 004°17'1 1.6
2017-Dec-17 20:29N 48°44' W 004°18'1 1.8
2017-Dec-17 19:58N 48°44' W 004°19'0 0.5
2017-Dec-17 19:30N 48°44' W 004°20'2 3.8
2017-Dec-17 19:00N 48°44' W 004°17'2 3.5
2017-Dec-17 18:18N 48°44' W 004°13'1 3.0
2017-Dec-17 17:59N 48°44' W 004°12'1 2.7
2017-Dec-17 17:31N 48°44' W 004°10'2 2.2
2017-Dec-17 16:37N 48°44' W 004°07'1 7.3
2017-Dec-17 16:28N 48°46' W 004°07'1 1.1
2017-Dec-17 16:00N 48°45' W 004°08'3 6.1
2017-Dec-17 15:30N 48°44' W 004°12'2 3.9
2017-Dec-17 14:58N 48°45' W 004°15'3 6.3
2017-Dec-17 14:30N 48°45' W 004°20'1 2.3
2017-Dec-17 14:00N 48°44' W 004°19'2 3.4
2017-Dec-17 13:30N 48°44' W 004°17'1 2.6
2017-Dec-17 13:00N 48°45' W 004°18'1 2.8
2017-Dec-17 12:31N 48°45' W 004°15'0 0.5
2017-Dec-17 11:59N 48°45' W 004°16'1 1.8
2017-Dec-17 11:31N 48°46' W 004°16'2 3.5
2017-Dec-17 11:00N 48°45' W 004°14'1 1.7
2017-Dec-17 10:30N 48°45' W 004°15'1 2.6
2017-Dec-17 10:00N 48°47' W 004°14'2 3.5
2017-Dec-17 09:30N 48°45' W 004°14'1 2.1
2017-Dec-17 09:00N 48°46' W 004°14'1 2.0
2017-Dec-17 08:29N 48°45' W 004°14'1 2.4
2017-Dec-17 08:01N 48°46' W 004°13'1 1.2
2017-Dec-17 07:30N 48°45' W 004°13'1 2.0
2017-Dec-17 07:01N 48°44' W 004°12'2 3.3
2017-Dec-17 06:30N 48°46' W 004°12'1 2.7
2017-Dec-17 06:01N 48°45' W 004°11'2 3.3
2017-Dec-17 05:30N 48°46' W 004°11'1 2.3
2017-Dec-17 04:59N 48°45' W 004°10'1 2.2
2017-Dec-17 04:29N 48°46' W 004°09'0 0.5
2017-Dec-17 03:57N 48°45' W 004°09'1 1.9
2017-Dec-17 03:28N 48°45' W 004°09'2 3.7
2017-Dec-17 02:59N 48°46' W 004°07'1 1.4
2017-Dec-17 02:30N 48°47' W 004°07'1 3.0
2017-Dec-17 02:00N 48°48' W 004°09'1 1.9
2017-Dec-17 01:23N 48°47' W 004°08'1 1.9
2017-Dec-17 01:00N 48°46' W 004°08'2 1.6
2017-Dec-17 00:03N 48°45' W 004°07'0 3.8
2017-Dec-16 23:57N 48°45' W 004°07'2 4.0
2017-Dec-16 23:26N 48°47' W 004°09'0 0.7
2017-Dec-16 22:59N 48°47' W 004°09'1 1.9
2017-Dec-16 22:30N 48°46' W 004°08'0 0.9
2017-Dec-16 22:00N 48°46' W 004°09'1 2.9
2017-Dec-16 21:30N 48°47' W 004°10'1 2.6
2017-Dec-16 21:00N 48°47' W 004°12'1 2.2
2017-Dec-16 20:30N 48°48' W 004°14'1 2.2
2017-Dec-16 20:01N 48°47' W 004°15'1 2.4
2017-Dec-16 19:30N 48°47' W 004°17'2 3.1
2017-Dec-16 18:59N 48°47' W 004°20'1 1.6
2017-Dec-16 18:30N 48°47' W 004°21'1 2.2
2017-Dec-16 17:59N 48°46' W 004°20'3 5.7
2017-Dec-16 17:29N 48°43' W 004°20'1 2.4
2017-Dec-16 17:00N 48°44' W 004°21'1 1.8
2017-Dec-16 16:30N 48°45' W 004°19'1 2.0
2017-Dec-16 15:58N 48°46' W 004°18'1 2.6
2017-Dec-16 15:30N 48°44' W 004°18'2 3.0
2017-Dec-16 14:59N 48°45' W 004°16'1 1.8
2017-Dec-16 14:31N 48°46' W 004°16'1 2.2
2017-Dec-16 14:00N 48°44' W 004°16'1 2.7
2017-Dec-16 13:30N 48°46' W 004°16'1 2.3
2017-Dec-16 13:01N 48°45' W 004°15'1 2.6
2017-Dec-16 12:30N 48°46' W 004°16'2 3.6
2017-Dec-16 12:00N 48°45' W 004°14'1 2.2
2017-Dec-16 11:30N 48°46' W 004°14'1 2.1
2017-Dec-16 11:00N 48°45' W 004°13'1 1.6
2017-Dec-16 10:30N 48°45' W 004°13'1 2.2
2017-Dec-16 10:00N 48°46' W 004°14'0 0.7
2017-Dec-16 09:26N 48°46' W 004°13'0 0.3
2017-Dec-16 08:59N 48°46' W 004°13'0 0.2
2017-Dec-16 08:29N 48°46' W 004°13'0 0.4
2017-Dec-16 08:01N 48°46' W 004°14'1 1.0
2017-Dec-16 07:30N 48°46' W 004°13'1 1.6
2017-Dec-16 07:00N 48°46' W 004°12'1 1.6
2017-Dec-16 06:29N 48°45' W 004°12'1 1.4
2017-Dec-16 06:00N 48°45' W 004°11'0 0.9
2017-Dec-16 05:30N 48°45' W 004°10'1 2.7
2017-Dec-16 05:00N 48°46' W 004°11'2 4.5
2017-Dec-16 04:28N 48°44' W 004°09'1 2.2
2017-Dec-16 04:00N 48°45' W 004°09'1 1.6
2017-Dec-16 03:29N 48°46' W 004°10'2 3.4
2017-Dec-16 03:00N 48°48' W 004°09'1 1.1
2017-Dec-16 02:06N 48°48' W 004°08'0 3.1
2017-Dec-16 01:58N 48°49' W 004°08'1 3.0
2017-Dec-16 01:28N 48°47' W 004°07'1 1.8
2017-Dec-16 00:50N 48°46' W 004°07'1 1.9
2017-Dec-16 00:27N 48°45' W 004°07'0 0.8
2017-Dec-16 00:00N 48°45' W 004°07'1 0.7
2017-Dec-15 23:13N 48°45' W 004°07'1 2.5
2017-Dec-15 22:47N 48°45' W 004°08'1 4.5
2017-Dec-15 22:29N 48°46' W 004°10'1 2.3
2017-Dec-15 22:00N 48°45' W 004°09'2 3.2
2017-Dec-15 21:27N 48°44' W 004°07'2 4.7
2017-Dec-15 20:57N 48°46' W 004°08'1 2.1
2017-Dec-15 20:30N 48°46' W 004°10'1 2.3
2017-Dec-15 20:00N 48°45' W 004°11'1 2.2
2017-Dec-15 19:30N 48°44' W 004°12'1 2.3
2017-Dec-15 19:01N 48°43' W 004°13'1 1.4
2017-Dec-15 18:29N 48°43' W 004°14'1 1.8
2017-Dec-15 18:00N 48°44' W 004°15'2 4.1
2017-Dec-15 17:30N 48°46' W 004°16'4 8.3
2017-Dec-15 17:01N 48°47' W 004°22'1 2.0
2017-Dec-15 16:31N 48°46' W 004°21'2 4.2
2017-Dec-15 15:57N 48°43' W 004°20'2 4.8
2017-Dec-15 15:30N 48°45' W 004°18'1 1.6
2017-Dec-15 15:00N 48°44' W 004°18'1 2.1
2017-Dec-15 14:30N 48°43' W 004°18'2 3.2
2017-Dec-15 14:00N 48°45' W 004°16'1 1.3
2017-Dec-15 13:30N 48°45' W 004°17'0 0.1
2017-Dec-15 13:01N 48°45' W 004°17'1 2.3
2017-Dec-15 12:31N 48°44' W 004°17'2 3.4
2017-Dec-15 11:59N 48°45' W 004°14'1 1.8
2017-Dec-15 11:30N 48°45' W 004°15'1 2.2
2017-Dec-15 10:59N 48°44' W 004°14'2 3.6
2017-Dec-15 10:24N 48°45' W 004°11'2 4.2
2017-Dec-15 10:00N 48°46' W 004°12'1 2.2
2017-Dec-15 09:30N 48°45' W 004°12'1 1.9
2017-Dec-15 09:00N 48°44' W 004°11'1 1.3
2017-Dec-15 08:30N 48°45' W 004°09'0 0.0
2017-Dec-13 12:55N 48°45' W 004°09'1 3.0
2017-Dec-13 12:28N 48°45' W 004°11'2 4.6
2017-Dec-13 11:59N 48°46' W 004°14'1 2.3
2017-Dec-13 11:30N 48°46' W 004°15'2 3.3
2017-Dec-13 11:00N 48°47' W 004°18'1 2.4
2017-Dec-13 10:26N 48°45' W 004°17'2 4.2
2017-Dec-13 10:01N 48°46' W 004°20'1 2.7
2017-Dec-13 09:30N 48°45' W 004°19'2 3.1
2017-Dec-13 08:49N 48°47' W 004°21'2 4.5
2017-Dec-13 08:26N 48°45' W 004°21'2 3.4
2017-Dec-13 07:58N 48°44' W 004°20'1 2.6
2017-Dec-13 07:30N 48°45' W 004°21'2 2.1
2017-Dec-13 06:32N 48°47' W 004°22'3 8.4
2017-Dec-13 06:11N 48°45' W 004°18'1 8.3
2017-Dec-13 06:00N 48°43' W 004°18'1 1.5
2017-Dec-13 05:30N 48°44' W 004°18'1 1.9
2017-Dec-13 05:00N 48°45' W 004°18'2 2.6
2017-Dec-13 04:22N 48°44' W 004°17'1 2.8
2017-Dec-13 03:58N 48°45' W 004°17'2 1.4
2017-Dec-13 02:48N 48°45' W 004°15'2 0.2
2017-Dec-12 17:43N 48°44' W 004°12'1 0.3
2017-Dec-12 14:53N 48°44' W 004°13'1 2.7
2017-Dec-12 14:22N 48°44' W 004°15'1 3.1
2017-Dec-12 14:00N 48°44' W 004°17'2 3.3
2017-Dec-12 13:16N 48°45' W 004°20'1 4.8
2017-Dec-12 13:00N 48°46' W 004°22'1 1.3
2017-Dec-12 12:08N 48°45' W 004°21'0 2.2
2017-Dec-12 12:00N 48°45' W 004°21'1 2.4
2017-Dec-12 11:30N 48°43' W 004°21'1 2.4
2017-Dec-12 11:00N 48°44' W 004°21'2 2.9
2017-Dec-12 10:25N 48°43' W 004°20'2 3.3
2017-Dec-12 09:57N 48°44' W 004°18'2 2.5
2017-Dec-12 09:11N 48°46' W 004°20'0 2.2
2017-Dec-12 08:59N 48°45' W 004°19'1 2.0
2017-Dec-12 08:30N 48°44' W 004°19'1 2.2
2017-Dec-12 07:59N 48°43' W 004°19'3 3.6
2017-Dec-12 07:04N 48°47' W 004°18'0 3.1
2017-Dec-12 06:58N 48°46' W 004°18'1 2.5
2017-Dec-12 06:29N 48°45' W 004°18'1 2.4
2017-Dec-12 06:00N 48°44' W 004°17'3 2.9
2017-Dec-12 05:01N 48°47' W 004°16'0 1.7
2017-Dec-12 04:48N 48°47' W 004°16'1 2.6
2017-Dec-12 04:30N 48°46' W 004°16'1 1.9
2017-Dec-12 04:00N 48°45' W 004°15'2 2.3
2017-Dec-12 03:19N 48°44' W 004°14'2 4.9
2017-Dec-12 02:54N 48°46' W 004°14'2 2.3
2017-Dec-12 02:10N 48°44' W 004°13'0 1.5
2017-Dec-12 01:58N 48°44' W 004°13'2 3.4
2017-Dec-12 01:24N 48°46' W 004°13'1 1.8
2017-Dec-12 01:00N 48°47' W 004°13'0 0.2
2017-Dec-11 23:51N 48°47' W 004°13'2 0.8
2017-Dec-11 21:38N 48°46' W 004°10'1 0.3
2017-Dec-11 19:39N 48°46' W 004°11'2 2.9
2017-Dec-11 18:58N 48°48' W 004°11'2 1.6
2017-Dec-11 17:53N 48°48' W 004°14'4 3.1
2017-Dec-11 16:38N 48°45' W 004°18'2 3.0
2017-Dec-11 15:58N 48°44' W 004°20'2 2.9
2017-Dec-11 15:20N 48°42' W 004°22'0 0.5
2017-Dec-11 14:58N 48°42' W 004°22'1 3.1
2017-Dec-11 14:29N 48°44' W 004°22'0 1.0
2017-Dec-11 13:58N 48°44' W 004°21'3 5.8
2017-Dec-11 13:30N 48°46' W 004°23'1 2.5
2017-Dec-11 12:56N 48°45' W 004°22'1 1.8
2017-Dec-11 12:30N 48°44' W 004°22'1 2.3
2017-Dec-11 11:58N 48°43' W 004°21'4 4.8
2017-Dec-11 11:06N 48°47' W 004°19'0 1.1
2017-Dec-11 10:58N 48°47' W 004°19'3 2.9
2017-Dec-11 10:07N 48°45' W 004°18'1 7.8
2017-Dec-11 10:00N 48°44' W 004°17'1 1.8
2017-Dec-11 09:30N 48°45' W 004°18'0 0.1
2017-Dec-11 08:59N 48°45' W 004°18'2 3.2
2017-Dec-11 08:30N 48°43' W 004°19'4 7.9
2017-Dec-11 08:00N 48°47' W 004°20'1 2.0
2017-Dec-11 07:29N 48°46' W 004°20'1 1.9
2017-Dec-11 07:00N 48°45' W 004°20'1 2.3
2017-Dec-11 06:30N 48°44' W 004°19'1 2.4
2017-Dec-11 06:00N 48°44' W 004°18'2 4.1
2017-Dec-11 05:30N 48°45' W 004°15'3 5.4
2017-Dec-11 05:00N 48°47' W 004°17'1 2.5
2017-Dec-11 04:30N 48°46' W 004°16'1 1.5
2017-Dec-11 04:00N 48°45' W 004°16'1 2.4
2017-Dec-11 03:30N 48°44' W 004°16'2 3.6
2017-Dec-11 03:00N 48°46' W 004°14'1 1.4
2017-Dec-11 02:30N 48°45' W 004°14'6 0.4
2017-Dec-10 08:58N 48°46' W 004°04'510.5
2017-Dec-10 08:30N 48°45' W 004°12'510.7
2017-Dec-10 08:00N 48°43' W 004°19'4 7.0
2017-Dec-10 07:30N 48°47' W 004°21'1 1.1
2017-Dec-10 07:00N 48°46' W 004°21'1 1.3
2017-Dec-10 06:31N 48°46' W 004°21'1 1.8
2017-Dec-10 06:00N 48°45' W 004°20'1 2.1
2017-Dec-10 05:30N 48°44' W 004°20'2 3.4
2017-Dec-10 05:00N 48°45' W 004°22'2 3.6
2017-Dec-10 04:29N 48°47' W 004°23'1 2.6
2017-Dec-10 04:00N 48°45' W 004°22'1 1.8
2017-Dec-10 03:30N 48°44' W 004°22'1 2.4
2017-Dec-10 03:00N 48°43' W 004°22'1 2.2
2017-Dec-10 02:30N 48°43' W 004°23'1 1.2
2017-Dec-10 01:59N 48°43' W 004°22'0 0.8
2017-Dec-10 01:30N 48°42' W 004°23'1 2.7
2017-Dec-10 01:00N 48°42' W 004°25'1 2.0
2017-Dec-10 00:30N 48°43' W 004°24'1 1.1
2017-Dec-10 00:00N 48°43' W 004°24'1 1.1
2017-Dec-09 23:30N 48°42' W 004°24'2 2.9
2017-Dec-09 22:59N 48°43' W 004°22'1 2.0
2017-Dec-09 22:30N 48°43' W 004°23'0 0.8
2017-Dec-09 22:00N 48°42' W 004°23'1 2.2
2017-Dec-09 21:28N 48°43' W 004°21'2 4.1
2017-Dec-09 21:01N 48°42' W 004°24'0 0.8
2017-Dec-09 20:30N 48°42' W 004°24'1 1.8
2017-Dec-09 20:00N 48°43' W 004°22'0 0.6
2017-Dec-09 19:31N 48°43' W 004°22'  

Dump ship's entire track history